Time;durP1;ratioP1;P1;durP2;ratioP2;P2;SDS_P1;SDS_P2;PMS_P1;PMS_P2;Temp;Humidity;BMP_temperature;BMP_pressure;BME280_temperature;BME280_humidity;BME280_pressure;Samples;Min_cycle;Max_cycle;Signal;HPM_P1;HPM_P2
2022/04/15 00:01:10;;;;;;;33.50;18.52;;;13.60;99.90;;;;;;5072567;28;20089;-79
2022/04/15 00:03:35;;;;;;;28.92;17.48;;;13.60;99.90;;;;;;5055917;28;20056;-80
2022/04/15 00:06:01;;;;;;;33.88;18.23;;;13.60;99.90;;;;;;5069373;28;20384;-80
2022/04/15 00:08:27;;;;;;;30.58;18.98;;;13.50;99.90;;;;;;5071141;28;20034;-80
2022/04/15 00:10:53;;;;;;;31.60;18.60;;;13.50;99.90;;;;;;5083540;28;20464;-80
2022/04/15 00:13:24;;;;;;;25.73;17.63;;;13.50;99.90;;;;;;5078549;28;20039;-79
2022/04/15 00:15:50;;;;;;;29.85;17.67;;;13.50;99.90;;;;;;5072183;28;20479;-79
2022/04/15 00:18:16;;;;;;;29.23;17.98;;;13.50;99.90;;;;;;5049261;28;20064;-80
2022/04/15 00:20:42;;;;;;;30.30;18.67;;;13.60;99.90;;;;;;5070196;28;20056;-80
2022/04/15 00:23:07;;;;;;;32.67;19.20;;;13.60;99.90;;;;;;5079381;28;20024;-81
2022/04/15 00:25:33;;;;;;;30.70;18.85;;;13.60;99.90;;;;;;5077565;28;20410;-83
2022/04/15 00:27:58;;;;;;;29.30;18.27;;;13.60;99.90;;;;;;5049557;28;20017;-81
2022/04/15 00:30:24;;;;;;;29.45;18.17;;;13.60;99.90;;;;;;5058694;28;20097;-80
2022/04/15 00:32:49;;;;;;;31.33;18.60;;;13.60;99.90;;;;;;5073828;28;20160;-79
2022/04/15 00:35:15;;;;;;;28.48;18.00;;;13.60;99.90;;;;;;5068704;28;20020;-82
2022/04/15 00:37:40;;;;;;;26.63;17.00;;;13.60;99.90;;;;;;5073855;28;20071;-83
2022/04/15 00:40:09;;;;;;;28.58;18.35;;;13.60;99.90;;;;;;5075856;28;20473;-82
2022/04/15 00:42:35;;;;;;;30.77;18.90;;;13.60;99.90;;;;;;5074904;28;20060;-83
2022/04/15 00:45:01;;;;;;;32.38;19.40;;;13.60;99.90;;;;;;5070133;28;20068;-81
2022/04/15 00:47:51;;;;;;;32.63;19.58;;;13.50;99.90;;;;;;5051918;28;20451;-83
2022/04/15 00:50:18;;;;;;;32.13;20.05;;;13.50;99.90;;;;;;5077164;28;20035;-79
2022/04/15 00:52:46;;;;;;;31.90;20.73;;;13.50;99.90;;;;;;5070011;28;20473;-79
2022/04/15 00:55:12;;;;;;;38.33;20.52;;;13.40;99.90;;;;;;5057281;28;20028;-85
2022/04/15 00:58:02;;;;;;;33.30;20.52;;;13.40;99.90;;;;;;5078551;28;20051;-81
2022/04/15 01:00:29;;;;;;;32.65;19.40;;;13.40;99.90;;;;;;5056500;28;20055;-79
2022/04/15 01:03:00;;;;;;;30.23;19.55;;;13.40;99.90;;;;;;5077418;28;20063;-80
2022/04/15 01:05:26;;;;;;;31.35;18.38;;;13.40;99.90;;;;;;5076743;28;20032;-83
2022/04/15 01:07:55;;;;;;;30.20;19.27;;;13.40;99.90;;;;;;5071654;28;20485;-79
2022/04/15 01:10:22;;;;;;;29.65;18.38;;;13.40;99.90;;;;;;5082162;28;20082;-80
2022/04/15 01:12:56;;;;;;;30.35;20.02;;;13.40;99.90;;;;;;5067921;28;20020;-81
2022/04/15 01:15:24;;;;;;;28.02;19.05;;;13.30;99.90;;;;;;5053177;28;20107;-79
2022/04/15 01:17:49;;;;;;;30.92;20.35;;;13.30;99.90;;;;;;5075771;28;20031;-82
2022/04/15 01:20:15;;;;;;;33.10;20.33;;;13.30;99.90;;;;;;5057717;28;20021;-83
2022/04/15 01:22:46;;;;;;;30.85;19.25;;;13.30;99.90;;;;;;5076621;28;20044;-83
2022/04/15 01:25:14;;;;;;;31.65;20.55;;;13.20;99.90;;;;;;5080750;28;20475;-81
2022/04/15 01:27:45;;;;;;;36.53;20.13;;;13.20;99.90;;;;;;5054928;28;20059;-79
2022/04/15 01:30:16;;;;;;;30.27;18.23;;;13.10;99.90;;;;;;5069815;28;20032;-84
2022/04/15 01:32:42;;;;;;;35.72;20.63;;;13.10;99.90;;;;;;5070690;28;20055;-81
2022/04/15 01:35:09;;;;;;;33.63;20.60;;;13.00;99.90;;;;;;5073681;28;20453;-80
2022/04/15 01:37:36;;;;;;;36.15;20.40;;;13.00;99.90;;;;;;5068153;28;20137;-79
2022/04/15 01:40:03;;;;;;;30.30;19.77;;;12.90;99.90;;;;;;5065922;28;20032;-80
2022/04/15 01:42:28;;;;;;;34.55;20.02;;;12.90;99.90;;;;;;5059323;28;20013;-81
2022/04/15 01:44:53;;;;;;;30.83;18.83;;;12.80;99.90;;;;;;5081563;28;20034;-78
2022/04/15 01:47:19;;;;;;;29.42;18.65;;;12.80;99.90;;;;;;5075592;28;20040;-84
2022/04/15 01:49:44;;;;;;;37.95;20.70;;;12.80;99.90;;;;;;5063254;28;20070;-81
2022/04/15 01:52:10;;;;;;;29.63;19.38;;;12.80;99.90;;;;;;5080694;28;20276;-80
2022/04/15 01:54:36;;;;;;;31.17;18.65;;;12.80;99.90;;;;;;5082171;28;20028;-81
2022/04/15 01:57:02;;;;;;;31.58;18.52;;;12.70;99.90;;;;;;5073683;28;20380;-79
2022/04/15 01:59:27;;;;;;;29.70;18.50;;;12.70;99.90;;;;;;5071829;28;20025;-80
2022/04/15 02:01:54;;;;;;;33.22;20.35;;;12.60;99.90;;;;;;5052737;28;20350;-78
2022/04/15 02:04:21;;;;;;;34.22;19.73;;;12.70;99.90;;;;;;5071579;28;20059;-81
2022/04/15 02:06:47;;;;;;;32.85;20.15;;;12.60;99.90;;;;;;5077474;28;20033;-79
2022/04/15 02:09:12;;;;;;;34.95;20.80;;;12.60;99.90;;;;;;5076002;28;20031;-80
2022/04/15 02:11:38;;;;;;;36.70;19.20;;;12.50;99.90;;;;;;5087546;28;20529;-82
2022/04/15 02:14:03;;;;;;;40.08;21.13;;;12.50;99.90;;;;;;5052553;28;20021;-82
2022/04/15 02:16:29;;;;;;;33.53;19.70;;;12.40;99.90;;;;;;5071524;28;20029;-82
2022/04/15 02:18:54;;;;;;;34.22;19.13;;;12.40;99.90;;;;;;5081140;28;20028;-86
2022/04/15 02:21:20;;;;;;;35.05;19.58;;;12.30;99.90;;;;;;5085576;28;20043;-83
2022/04/15 02:23:45;;;;;;;33.78;19.20;;;12.30;99.90;;;;;;5075650;28;20420;-84
2022/04/15 02:26:10;;;;;;;32.80;19.42;;;12.30;99.90;;;;;;5074674;28;20507;-81
2022/04/15 02:28:36;;;;;;;31.75;19.73;;;12.30;99.90;;;;;;5069381;28;20024;-82
2022/04/15 02:31:01;;;;;;;36.42;20.42;;;12.20;99.90;;;;;;5079139;28;20118;-82
2022/04/15 02:33:27;;;;;;;32.55;20.05;;;12.20;99.90;;;;;;5074841;28;20546;-81
2022/04/15 02:35:52;;;;;;;29.67;18.92;;;12.20;99.90;;;;;;5074894;28;20058;-82
2022/04/15 02:38:18;;;;;;;32.60;19.60;;;12.10;99.90;;;;;;5071404;28;20469;-81
2022/04/15 02:40:44;;;;;;;24.67;16.05;;;12.10;99.90;;;;;;5072096;28;20021;-81
2022/04/15 02:43:10;;;;;;;20.45;15.25;;;12.00;99.90;;;;;;5060291;28;20020;-84
2022/04/15 02:45:37;;;;;;;23.83;14.25;;;12.00;99.90;;;;;;5084546;28;20028;-82
2022/04/15 02:48:03;;;;;;;18.73;12.25;;;11.90;99.90;;;;;;5077430;28;20082;-80
2022/04/15 02:50:29;;;;;;;20.25;12.48;;;11.90;99.90;;;;;;5072884;28;20035;-82
2022/04/15 02:52:54;;;;;;;15.52;10.75;;;11.80;99.90;;;;;;5060035;28;20021;-81
2022/04/15 02:55:20;;;;;;;17.98;11.40;;;11.70;99.90;;;;;;5078012;28;20480;-81
2022/04/15 02:57:45;;;;;;;18.92;11.10;;;11.70;99.90;;;;;;5075084;28;20032;-80
2022/04/15 03:00:12;;;;;;;15.43;10.50;;;11.60;99.90;;;;;;5059208;28;20488;-82
2022/04/15 03:02:38;;;;;;;14.60;10.68;;;11.70;99.90;;;;;;5074490;28;20024;-81
2022/04/15 03:05:04;;;;;;;14.27;9.60;;;11.70;99.90;;;;;;5073891;28;20027;-82
2022/04/15 03:07:29;;;;;;;15.23;9.63;;;11.60;99.90;;;;;;5075965;28;20028;-80
2022/04/15 03:09:55;;;;;;;14.55;9.43;;;11.60;99.90;;;;;;5063978;28;20023;-81
2022/04/15 03:12:20;;;;;;;10.65;8.55;;;11.60;99.90;;;;;;5077267;28;20100;-82
2022/04/15 03:14:49;;;;;;;12.63;8.77;;;11.60;99.90;;;;;;5062471;28;20024;-82
2022/04/15 03:17:14;;;;;;;16.27;9.52;;;11.70;99.90;;;;;;5066560;28;20020;-84
2022/04/15 03:19:40;;;;;;;14.32;9.25;;;11.60;99.90;;;;;;5056815;28;20028;-86
2022/04/15 03:22:05;;;;;;;12.32;9.30;;;11.60;99.90;;;;;;5066181;28;20036;-81
2022/04/15 03:24:31;;;;;;;10.38;8.63;;;11.60;99.90;;;;;;5047323;28;20052;-82
2022/04/15 03:26:57;;;;;;;12.02;8.65;;;11.60;99.90;;;;;;5064409;28;20040;-82
2022/04/15 03:29:22;;;;;;;14.32;10.13;;;11.60;99.90;;;;;;5066226;28;20449;-81
2022/04/15 03:31:48;;;;;;;13.27;9.90;;;11.50;99.90;;;;;;5064485;28;20024;-82
2022/04/15 03:34:13;;;;;;;16.67;10.70;;;11.50;99.90;;;;;;5047323;28;20033;-84
2022/04/15 03:36:40;;;;;;;16.83;11.60;;;11.50;99.90;;;;;;5059132;28;20029;-80
2022/04/15 03:39:05;;;;;;;20.95;11.70;;;11.40;99.90;;;;;;5053106;28;20116;-80
2022/04/15 03:41:31;;;;;;;19.17;12.75;;;11.40;99.90;;;;;;5064758;28;20447;-81
2022/04/15 03:43:56;;;;;;;17.90;12.40;;;11.30;99.90;;;;;;5068901;28;20068;-81
2022/04/15 03:46:22;;;;;;;21.60;14.15;;;11.30;99.90;;;;;;5062985;28;20036;-80
2022/04/15 03:48:47;;;;;;;16.45;12.38;;;11.30;99.90;;;;;;5064786;28;20024;-84
2022/04/15 03:51:13;;;;;;;17.55;12.82;;;11.30;99.90;;;;;;5064135;28;20083;-81
2022/04/15 03:53:38;;;;;;;20.05;13.30;;;11.20;99.90;;;;;;5050385;28;20020;-80
2022/04/15 03:56:07;;;;;;;17.88;12.82;;;11.20;99.90;;;;;;5068791;28;20068;-83
2022/04/15 03:58:34;;;;;;;17.33;12.23;;;11.30;99.90;;;;;;5063319;28;20100;-82
2022/04/15 04:01:00;;;;;;;20.70;14.07;;;11.30;99.90;;;;;;5064861;28;20033;-81
2022/04/15 04:03:25;;;;;;;15.60;12.48;;;11.20;99.90;;;;;;5065137;28;20024;-83
2022/04/15 04:05:51;;;;;;;19.77;13.32;;;11.20;99.90;;;;;;5071995;28;20426;-79
2022/04/15 04:08:17;;;;;;;18.38;13.05;;;11.30;99.90;;;;;;5074219;28;20107;-81
2022/04/15 04:10:42;;;;;;;19.20;13.57;;;11.30;99.90;;;;;;5066191;28;20477;-80
2022/04/15 04:13:08;;;;;;;16.70;12.60;;;11.20;99.90;;;;;;5064602;28;21465;-81
2022/04/15 04:15:37;;;;;;;21.15;12.60;;;11.10;99.90;;;;;;5064646;28;20071;-82
2022/04/15 04:18:03;;;;;;;16.42;11.75;;;10.90;99.90;;;;;;5063311;28;20032;-83
2022/04/15 04:20:30;;;;;;;19.23;12.85;;;10.90;99.90;;;;;;5065189;28;20397;-79
2022/04/15 04:22:56;;;;;;;19.73;12.57;;;10.90;99.90;;;;;;5064888;28;21921;-82
2022/04/15 04:25:22;;;;;;;18.50;13.65;;;10.80;99.90;;;;;;5060526;28;20037;-81
2022/04/15 04:27:48;;;;;;;19.70;14.23;;;10.90;99.90;;;;;;5065233;28;20064;-80
2022/04/15 04:30:14;;;;;;;17.67;14.15;;;10.80;99.90;;;;;;5065196;28;20058;-82
2022/04/15 04:32:41;;;;;;;19.92;13.27;;;10.80;99.90;;;;;;5065410;28;20526;-83
2022/04/15 04:35:07;;;;;;;20.33;13.80;;;10.80;99.90;;;;;;5066252;28;20036;-80
2022/04/15 04:37:33;;;;;;;18.02;12.25;;;10.80;99.90;;;;;;5076658;28;20106;-80
2022/04/15 04:39:59;;;;;;;13.73;11.25;;;10.80;99.90;;;;;;5055393;28;20742;-80
2022/04/15 04:42:25;;;;;;;16.25;9.63;;;10.70;99.90;;;;;;5061115;28;20304;-79
2022/04/15 04:44:52;;;;;;;14.82;9.70;;;10.60;99.90;;;;;;5060204;28;20020;-80
2022/04/15 04:47:20;;;;;;;11.60;9.50;;;10.50;99.90;;;;;;5059782;28;20122;-79
2022/04/15 04:49:46;;;;;;;14.52;9.65;;;10.50;99.90;;;;;;5062643;28;20037;-79
2022/04/15 04:52:11;;;;;;;11.00;8.43;;;10.50;99.90;;;;;;5060577;28;20051;-81
2022/04/15 04:54:38;;;;;;;14.52;9.27;;;10.50;99.90;;;;;;5062783;28;20047;-79
2022/04/15 04:57:03;;;;;;;13.52;8.55;;;10.50;99.90;;;;;;5060707;28;20048;-80
2022/04/15 04:59:31;;;;;;;14.52;8.63;;;10.60;99.90;;;;;;5061108;28;20133;-78
2022/04/15 05:01:57;;;;;;;12.30;8.65;;;10.60;99.90;;;;;;5061253;28;20040;-79
2022/04/15 05:04:22;;;;;;;10.43;7.90;;;10.60;99.90;;;;;;5059954;28;20040;-79
2022/04/15 05:06:48;;;;;;;13.02;7.72;;;10.50;99.90;;;;;;5082556;28;20057;-81
2022/04/15 05:09:13;;;;;;;11.52;7.55;;;10.50;99.90;;;;;;5071623;28;20028;-78
2022/04/15 05:11:39;;;;;;;13.23;8.60;;;10.50;99.90;;;;;;5046063;28;20035;-80
2022/04/15 05:14:04;;;;;;;14.40;8.10;;;10.50;99.90;;;;;;5060600;28;20044;-78
2022/04/15 05:16:30;;;;;;;10.38;7.15;;;10.60;99.90;;;;;;5061372;28;20044;-78
2022/04/15 05:18:56;;;;;;;13.00;7.47;;;10.60;99.90;;;;;;5061848;28;20032;-80
2022/04/15 05:21:21;;;;;;;11.60;7.78;;;10.60;99.90;;;;;;5079826;28;20028;-78
2022/04/15 05:23:47;;;;;;;11.00;7.45;;;10.50;99.90;;;;;;5071530;28;20097;-78
2022/04/15 05:26:13;;;;;;;13.55;8.38;;;10.50;99.90;;;;;;5079675;28;20028;-81
2022/04/15 05:28:39;;;;;;;11.70;7.20;;;10.40;99.90;;;;;;5074094;28;20020;-81
2022/04/15 05:31:04;;;;;;;11.18;8.10;;;10.30;99.90;;;;;;5073699;28;20396;-78
2022/04/15 05:33:31;;;;;;;10.98;6.78;;;10.20;99.90;;;;;;5076406;28;20166;-81
2022/04/15 05:35:57;;;;;;;9.57;7.13;;;10.00;99.90;;;;;;5059988;28;20043;-81
2022/04/15 05:38:22;;;;;;;9.25;6.20;;;10.00;99.90;;;;;;5058733;28;20024;-80
2022/04/15 05:40:48;;;;;;;12.63;7.13;;;10.00;99.90;;;;;;5069227;28;20012;-80
2022/04/15 05:43:13;;;;;;;7.60;5.47;;;9.90;99.90;;;;;;5070165;28;20032;-82
2022/04/15 05:45:39;;;;;;;9.82;6.15;;;9.90;99.90;;;;;;5070946;28;20469;-81
2022/04/15 05:48:04;;;;;;;6.70;5.07;;;9.90;99.90;;;;;;5068814;28;20071;-80
2022/04/15 05:50:30;;;;;;;8.23;6.22;;;9.80;99.90;;;;;;5068153;28;20036;-80
2022/04/15 05:52:55;;;;;;;8.70;6.50;;;9.70;99.90;;;;;;5055296;28;20044;-81
2022/04/15 05:55:21;;;;;;;10.27;6.57;;;9.80;99.90;;;;;;5070591;28;20032;-80
2022/04/15 05:57:47;;;;;;;7.97;6.25;;;9.70;99.90;;;;;;5082483;28;20036;-79
2022/04/15 06:00:12;;;;;;;8.73;6.38;;;9.80;99.90;;;;;;5055243;28;20025;-80
2022/04/15 06:02:38;;;;;;;10.57;6.63;;;9.80;99.90;;;;;;5056712;28;20028;-80
2022/04/15 06:05:04;;;;;;;9.45;5.88;;;9.90;99.90;;;;;;5061926;28;20016;-79
2022/04/15 06:07:30;;;;;;;9.50;5.20;;;10.00;99.90;;;;;;5079993;28;20064;-79
2022/04/15 06:09:56;;;;;;;7.47;5.32;;;10.00;99.90;;;;;;5076709;28;20086;-84
2022/04/15 06:12:22;;;;;;;7.40;5.60;;;10.00;99.90;;;;;;5067656;28;20102;-80
2022/04/15 06:14:48;;;;;;;8.00;5.00;;;10.10;99.90;;;;;;5074032;28;20035;-81
2022/04/15 06:17:16;;;;;;;8.45;4.95;;;10.10;99.90;;;;;;5068916;28;20067;-80
2022/04/15 06:19:42;;;;;;;10.88;5.88;;;10.20;99.90;;;;;;5069374;28;20354;-79
2022/04/15 06:22:07;;;;;;;7.50;5.00;;;10.20;99.90;;;;;;5070731;28;20058;-81
2022/04/15 06:24:33;;;;;;;7.38;4.35;;;10.30;99.90;;;;;;5068323;28;20358;-83
2022/04/15 06:26:58;;;;;;;6.97;4.75;;;10.30;99.90;;;;;;5069779;28;20052;-78
2022/04/15 06:29:24;;;;;;;9.05;5.28;;;10.40;99.50;;;;;;5069637;28;20068;-81
2022/04/15 06:31:50;;;;;;;5.70;4.65;;;10.50;99.10;;;;;;5070095;28;20029;-82
2022/04/15 06:34:15;;;;;;;7.03;4.22;;;10.50;99.00;;;;;;5069984;28;20346;-81
2022/04/15 06:36:41;;;;;;;11.60;4.60;;;10.50;98.80;;;;;;5068836;28;20044;-82
2022/04/15 06:39:06;;;;;;;5.35;4.53;;;10.40;98.90;;;;;;5070034;28;20099;-82
2022/04/15 06:41:34;;;;;;;7.50;4.80;;;10.50;99.10;;;;;;5069807;28;20104;-82
2022/04/15 06:43:59;;;;;;;6.15;5.10;;;10.60;98.70;;;;;;5069196;28;20024;-81
2022/04/15 06:46:24;;;;;;;7.13;4.45;;;10.60;98.90;;;;;;5068582;28;20033;-79
2022/04/15 06:48:50;;;;;;;6.18;4.63;;;10.60;98.60;;;;;;5069317;28;20059;-81
2022/04/15 06:51:15;;;;;;;7.85;4.60;;;10.60;98.40;;;;;;5067403;28;20032;-82
2022/04/15 06:53:41;;;;;;;5.00;4.13;;;10.60;98.80;;;;;;5069621;28;20028;-80
2022/04/15 06:56:06;;;;;;;6.22;4.32;;;10.60;98.20;;;;;;5068326;28;20040;-80
2022/04/15 06:58:32;;;;;;;6.32;4.25;;;10.60;98.60;;;;;;5067869;28;20021;-80
2022/04/15 07:00:57;;;;;;;4.88;3.90;;;10.70;98.30;;;;;;5068434;28;20058;-81
2022/04/15 07:03:25;;;;;;;6.30;3.95;;;10.80;98.10;;;;;;5067522;28;20108;-80
2022/04/15 07:05:50;;;;;;;4.05;3.40;;;10.90;98.30;;;;;;5067687;28;20112;-79
2022/04/15 07:08:15;;;;;;;4.75;4.07;;;10.90;97.80;;;;;;5070648;28;20112;-82
2022/04/15 07:10:41;;;;;;;4.43;3.45;;;10.90;97.60;;;;;;5069487;28;20032;-81
2022/04/15 07:13:07;;;;;;;5.55;3.20;;;11.00;97.40;;;;;;5067949;28;20066;-81
2022/04/15 07:15:32;;;;;;;6.47;3.45;;;11.10;97.00;;;;;;5068957;28;20017;-81
2022/04/15 07:17:59;;;;;;;5.13;3.13;;;11.00;97.00;;;;;;5069744;28;20055;-81
2022/04/15 07:20:26;;;;;;;2.90;2.60;;;10.90;96.80;;;;;;5070120;28;20047;-81
2022/04/15 07:22:56;;;;;;;3.65;2.13;;;10.90;96.90;;;;;;5069450;28;20417;-81
2022/04/15 07:25:22;;;;;;;1.92;1.60;;;10.90;96.70;;;;;;5069700;28;20028;-82
2022/04/15 07:27:47;;;;;;;2.45;1.90;;;10.90;96.40;;;;;;5071725;28;20354;-79
2022/04/15 07:30:13;;;;;;;1.95;1.63;;;11.00;96.20;;;;;;5070209;28;20025;-81
2022/04/15 07:32:38;;;;;;;2.80;1.95;;;11.00;95.90;;;;;;5071208;28;20526;-81
2022/04/15 07:35:04;;;;;;;2.22;1.83;;;11.10;95.80;;;;;;5053184;28;20016;-80
2022/04/15 07:37:30;;;;;;;3.03;1.60;;;11.20;95.90;;;;;;5070538;28;20063;-82
2022/04/15 07:39:55;;;;;;;4.50;1.65;;;11.40;95.50;;;;;;5069760;28;20508;-80
2022/04/15 07:42:21;;;;;;;2.83;1.98;;;11.40;95.20;;;;;;5069246;28;20063;-81
2022/04/15 07:44:46;;;;;;;2.40;1.88;;;11.40;95.60;;;;;;5069618;28;20016;-80
2022/04/15 07:47:12;;;;;;;2.22;1.80;;;11.40;95.30;;;;;;5068928;28;20633;-80
2022/04/15 07:49:37;;;;;;;5.40;2.00;;;11.40;96.00;;;;;;5069742;28;20017;-79
2022/04/15 07:52:04;;;;;;;2.88;2.53;;;11.40;95.60;;;;;;5069099;28;20497;-81
2022/04/15 07:54:30;;;;;;;3.28;2.22;;;11.30;95.80;;;;;;5070170;28;20155;-80
2022/04/15 07:56:56;;;;;;;3.20;1.70;;;11.30;95.90;;;;;;5070385;28;20116;-78
2022/04/15 07:59:21;;;;;;;1.83;1.60;;;11.30;96.00;;;;;;5070886;28;20142;-81
2022/04/15 08:01:47;;;;;;;5.32;2.00;;;11.30;96.30;;;;;;5052552;28;20024;-82
2022/04/15 08:04:13;;;;;;;2.58;1.92;;;11.30;96.20;;;;;;5052922;28;20029;-79
2022/04/15 08:06:39;;;;;;;2.80;1.85;;;11.50;96.10;;;;;;5070237;28;20043;-81
2022/04/15 08:09:04;;;;;;;2.95;1.95;;;11.50;95.90;;;;;;5070898;28;20524;-81
2022/04/15 08:11:30;;;;;;;2.95;2.30;;;11.50;95.80;;;;;;5070475;28;20043;-80
2022/04/15 08:13:56;;;;;;;3.72;1.95;;;11.50;96.00;;;;;;5070668;28;20027;-84
2022/04/15 08:16:24;;;;;;;3.25;2.00;;;11.60;95.80;;;;;;5069759;28;20032;-81
2022/04/15 08:18:50;;;;;;;4.25;2.20;;;11.60;95.30;;;;;;5070654;28;20033;-81
2022/04/15 08:21:16;;;;;;;3.90;2.13;;;11.50;95.80;;;;;;5070393;28;20027;-82
2022/04/15 08:23:42;;;;;;;2.47;2.00;;;11.50;95.70;;;;;;5070615;28;20478;-81
2022/04/15 08:26:07;;;;;;;3.35;2.20;;;11.40;96.00;;;;;;5069972;28;20042;-81
2022/04/15 08:28:33;;;;;;;2.85;1.90;;;11.40;96.00;;;;;;5070306;28;20413;-81
2022/04/15 08:30:58;;;;;;;3.17;1.63;;;11.40;96.30;;;;;;5070341;28;20086;-82
2022/04/15 08:33:24;;;;;;;2.08;1.90;;;11.20;95.80;;;;;;5070167;28;20017;-81
2022/04/15 08:35:50;;;;;;;3.75;2.67;;;11.10;95.40;;;;;;5051923;28;20476;-81
2022/04/15 08:38:15;;;;;;;1.60;1.50;;;11.00;95.80;;;;;;5070079;28;20698;-80
2022/04/15 08:40:49;;;;;;;3.08;2.05;;;11.00;96.20;;;;;;5070130;28;20029;-80
2022/04/15 08:43:14;;;;;;;2.42;1.30;;;11.00;96.00;;;;;;5070391;28;20031;-82
2022/04/15 08:45:41;;;;;;;2.47;1.75;;;10.90;95.90;;;;;;5069760;28;20025;-79
2022/04/15 08:48:08;;;;;;;2.90;1.85;;;11.00;95.90;;;;;;5052452;28;20392;-79
2022/04/15 08:50:33;;;;;;;2.45;1.60;;;11.00;95.70;;;;;;5070354;28;20460;-82
2022/04/15 08:53:00;;;;;;;2.83;1.80;;;11.20;95.80;;;;;;5070283;28;20038;-82
2022/04/15 08:55:27;;;;;;;2.53;1.85;;;11.20;96.00;;;;;;5051348;28;20025;-81
2022/04/15 08:57:53;;;;;;;3.55;2.00;;;11.30;96.10;;;;;;5070524;28;20028;-82
2022/04/15 09:00:20;;;;;;;2.75;2.20;;;11.40;96.00;;;;;;5052073;28;20040;-82
2022/04/15 09:02:47;;;;;;;2.13;1.50;;;11.40;95.90;;;;;;5070212;28;20032;-80
2022/04/15 09:05:17;;;;;;;2.47;1.30;;;11.50;95.30;;;;;;5069890;28;20074;-80
2022/04/15 09:07:45;;;;;;;1.27;1.13;;;11.60;94.80;;;;;;5070148;28;20055;-81
2022/04/15 09:10:11;;;;;;;1.80;1.50;;;11.60;94.50;;;;;;5070421;28;20029;-80
2022/04/15 09:12:38;;;;;;;1.30;1.20;;;11.80;94.10;;;;;;5051689;28;20027;-81
2022/04/15 09:15:07;;;;;;;3.03;1.35;;;11.80;93.80;;;;;;5070143;28;20050;-80
2022/04/15 09:17:35;;;;;;;1.63;1.45;;;11.90;94.10;;;;;;5069257;28;20125;-80
2022/04/15 09:20:02;;;;;;;2.08;1.08;;;12.00;94.20;;;;;;5051990;28;20031;-78
2022/04/15 09:22:27;;;;;;;2.50;1.20;;;12.10;94.20;;;;;;5069516;28;20032;-79
2022/04/15 09:24:53;;;;;;;1.70;1.60;;;12.20;93.30;;;;;;5070453;28;20361;-80
2022/04/15 09:27:23;;;;;;;1.40;1.23;;;12.30;93.10;;;;;;5072753;28;20021;-77
2022/04/15 09:29:50;;;;;;;1.83;1.50;;;12.40;92.90;;;;;;5073840;28;20020;-81
2022/04/15 09:32:17;;;;;;;2.03;1.55;;;12.40;93.10;;;;;;5073205;28;20485;-79
2022/04/15 09:35:00;;;;;;;1.00;0.90;;;12.50;93.00;;;;;;5073779;28;20028;-80
2022/04/15 09:37:29;;;;;;;1.80;1.05;;;12.60;92.30;;;;;;5072383;28;20043;-79
2022/04/15 09:40:09;;;;;;;0.90;0.70;;;12.60;91.80;;;;;;5073659;28;20032;-80
2022/04/15 09:42:50;;;;;;;1.55;1.25;;;12.50;92.20;;;;;;5073161;28;20065;-78
2022/04/15 09:45:20;;;;;;;2.03;1.17;;;12.40;92.30;;;;;;5073043;28;20025;-81
2022/04/15 09:47:53;;;;;;;1.08;0.90;;;12.40;92.40;;;;;;5073391;28;20060;-78
2022/04/15 09:50:34;;;;;;;3.08;1.25;;;12.50;92.40;;;;;;5073349;28;20017;-79
2022/04/15 09:53:16;;;;;;;1.60;1.30;;;12.50;92.70;;;;;;5055246;28;20040;-81
2022/04/15 09:55:50;;;;;;;2.92;1.23;;;12.60;92.50;;;;;;5073112;28;20032;-80
2022/04/15 09:58:16;;;;;;;1.98;1.33;;;12.60;92.50;;;;;;5055178;28;20801;-78
2022/04/15 10:00:47;;;;;;;0.95;0.77;;;12.60;92.00;;;;;;5072908;28;20020;-80
2022/04/15 10:03:18;;;;;;;1.67;1.20;;;12.50;91.90;;;;;;5073172;28;20017;-80
2022/04/15 10:05:44;;;;;;;2.15;1.65;;;12.40;92.40;;;;;;5072655;28;20404;-80
2022/04/15 10:08:10;;;;;;;1.83;1.58;;;12.40;92.60;;;;;;5054949;28;20027;-79
2022/04/15 10:10:37;;;;;;;1.52;1.27;;;12.40;92.80;;;;;;5072989;28;20537;-80
2022/04/15 10:13:05;;;;;;;2.05;1.17;;;12.20;93.00;;;;;;5072674;28;20023;-79
2022/04/15 10:15:32;;;;;;;1.92;1.45;;;12.10;93.30;;;;;;5072128;28;20086;-79
2022/04/15 10:18:01;;;;;;;1.70;1.30;;;12.10;93.50;;;;;;5072990;28;20119;-81
2022/04/15 10:20:28;;;;;;;1.17;1.05;;;11.90;93.60;;;;;;5073032;28;20056;-78
2022/04/15 10:23:05;;;;;;;2.35;1.30;;;11.90;93.90;;;;;;5072792;28;20021;-78
2022/04/15 10:25:33;;;;;;;1.55;1.45;;;11.90;93.80;;;;;;5071932;28;20035;-80
2022/04/15 10:28:04;;;;;;;1.60;1.40;;;11.90;94.60;;;;;;5072831;28;20021;-78
2022/04/15 10:30:29;;;;;;;2.25;1.42;;;11.90;94.40;;;;;;5072614;28;20030;-80
2022/04/15 10:32:58;;;;;;;1.38;1.27;;;12.00;93.80;;;;;;5072616;28;20427;-82
2022/04/15 10:35:34;;;;;;;1.98;1.20;;;12.30;93.60;;;;;;5071639;28;20108;-79
2022/04/15 10:38:10;;;;;;;1.92;1.73;;;12.30;93.30;;;;;;5071288;28;20708;-79
2022/04/15 10:40:36;;;;;;;2.53;1.63;;;12.50;93.60;;;;;;5072506;28;20059;-79
2022/04/15 10:43:17;;;;;;;2.47;1.38;;;12.60;93.50;;;;;;5072310;28;20024;-81
2022/04/15 10:45:42;;;;;;;1.40;1.13;;;12.70;92.50;;;;;;5053878;28;20035;-80
2022/04/15 10:48:08;;;;;;;2.05;1.70;;;12.80;92.70;;;;;;5072824;28;20040;-79
2022/04/15 10:50:35;;;;;;;1.48;1.30;;;12.80;92.50;;;;;;5054160;28;20031;-83
2022/04/15 10:53:26;;;;;;;1.83;1.60;;;12.90;92.40;;;;;;5072054;28;20143;-80
2022/04/15 10:55:52;;;;;;;2.00;1.50;;;13.10;92.80;;;;;;5053646;28;20028;-81
2022/04/15 10:58:20;;;;;;;4.03;1.55;;;13.20;91.90;;;;;;5072009;28;20496;-79
2022/04/15 11:01:21;;;;;;;1.60;1.40;;;13.10;92.10;;;;;;5053946;28;20032;-79
2022/04/15 11:03:53;;;;;;;1.90;1.60;;;13.20;91.90;;;;;;5072114;28;20032;-79
2022/04/15 11:06:26;;;;;;;;;;;13.20;92.60;;;;;;5071807;28;20033;-81
2022/04/15 11:08:52;;;;;;;2.13;1.92;;;13.10;92.20;;;;;;5072159;28;19914;-80
2022/04/15 11:11:18;;;;;;;2.80;2.03;;;13.00;92.50;;;;;;5071681;28;20028;-79
2022/04/15 11:13:44;;;;;;;2.17;1.90;;;13.00;92.60;;;;;;5072020;28;20107;-80
2022/04/15 11:16:12;;;;;;;2.70;1.92;;;13.00;92.80;;;;;;5071091;28;20436;-81
2022/04/15 11:18:43;;;;;;;2.53;1.92;;;13.00;93.10;;;;;;5071757;28;20028;-79
2022/04/15 11:21:30;;;;;;;3.15;2.40;;;13.00;93.20;;;;;;5071243;28;20036;-78
2022/04/15 11:24:16;;;;;;;5.57;2.30;;;12.80;92.50;;;;;;5071809;28;20021;-78
2022/04/15 11:26:43;;;;;;;3.08;2.20;;;12.70;92.80;;;;;;5053180;28;20111;-79
2022/04/15 11:29:11;;;;;;;2.38;2.17;;;12.70;92.50;;;;;;5071478;28;20061;-79
2022/04/15 11:31:49;;;;;;;2.35;2.05;;;12.70;92.80;;;;;;5071099;28;20675;-81
2022/04/15 11:34:20;;;;;;;3.67;2.60;;;12.60;92.20;;;;;;5071200;28;20013;-79
2022/04/15 11:36:50;;;;;;;3.17;2.10;;;12.60;92.20;;;;;;5070737;28;20123;-79
2022/04/15 11:39:18;;;;;;;3.97;2.22;;;12.70;92.40;;;;;;5071243;28;20119;-81
2022/04/15 11:41:44;;;;;;;3.28;2.22;;;12.80;92.30;;;;;;5071014;28;20561;-80
2022/04/15 11:44:10;;;;;;;2.60;2.40;;;12.80;92.50;;;;;;5071215;28;20029;-81
2022/04/15 11:46:36;;;;;;;2.70;2.28;;;12.70;92.40;;;;;;5070870;28;20479;-78
2022/04/15 11:49:11;;;;;;;2.38;2.17;;;12.60;92.60;;;;;;5070755;28;20051;-79
2022/04/15 11:51:37;;;;;;;2.72;2.05;;;12.50;93.00;;;;;;5071033;28;20016;-78
2022/04/15 11:54:02;;;;;;;2.80;2.35;;;12.60;92.90;;;;;;5071200;28;20379;-79
2022/04/15 11:56:29;;;;;;;4.45;2.00;;;12.60;93.30;;;;;;5070154;28;20032;-79
2022/04/15 11:58:57;;;;;;;4.13;3.20;;;12.60;93.20;;;;;;5071347;28;20048;-81
2022/04/15 12:01:31;;;;;;;3.67;2.97;;;12.50;93.30;;;;;;5052731;28;20437;-80
2022/04/15 12:04:00;;;;;;;3.15;2.47;;;12.50;93.40;;;;;;5053189;28;20025;-80
2022/04/15 12:06:27;;;;;;;3.70;3.35;;;12.40;93.50;;;;;;5070033;28;20040;-81
2022/04/15 12:08:54;;;;;;;3.58;2.53;;;12.40;94.20;;;;;;5070773;28;20099;-80
2022/04/15 12:11:22;;;;;;;3.10;2.63;;;12.40;94.20;;;;;;5052451;28;20022;-82
2022/04/15 12:13:58;;;;;;;4.35;2.78;;;12.20;94.50;;;;;;5070888;28;20027;-82
2022/04/15 12:16:24;;;;;;;5.40;2.63;;;12.10;94.60;;;;;;5069744;28;20038;-80
2022/04/15 12:18:52;;;;;;;3.20;2.60;;;12.20;94.70;;;;;;5070784;28;20031;-79
2022/04/15 12:21:18;;;;;;;3.70;2.67;;;12.20;94.70;;;;;;5070294;28;20020;-80
2022/04/15 12:24:09;;;;;;;4.63;3.50;;;12.20;94.60;;;;;;5052687;28;20411;-81
2022/04/15 12:26:41;;;;;;;5.20;2.85;;;12.20;94.80;;;;;;5069932;28;20029;-82
2022/04/15 12:31:52;;;;;;;4.55;3.20;;;12.10;94.90;;;;;;5070341;28;20038;-81
2022/04/15 12:34:17;;;;;;;3.40;2.78;;;11.90;95.10;;;;;;5070554;28;20451;-80
2022/04/15 12:36:46;;;;;;;3.92;3.53;;;12.00;95.20;;;;;;5069886;28;20032;-81
2022/04/15 12:39:13;;;;;;;4.55;3.30;;;11.90;95.40;;;;;;5070720;28;20423;-81
2022/04/15 12:41:48;;;;;;;3.80;3.33;;;11.90;95.30;;;;;;5071284;28;20052;-82
2022/04/15 12:44:23;;;;;;;4.80;4.15;;;12.00;95.90;;;;;;5052740;28;20047;-79